sensor_id;sensor_type;location;lat;lon;timestamp;P1;durP1;ratioP1;P2;durP2;ratioP2
55013;SDS011;40916;51.632;5.552;2022-10-31T00:01:09;11.3;;;23.3;;
55013;SDS011;40916;51.632;5.552;2022-10-31T00:06:03;11.2;;;19;;
55013;SDS011;40916;51.632;5.552;2022-10-31T00:11:03;10.8;;;20;;
55013;SDS011;40916;51.632;5.552;2022-10-31T00:16:03;11.6;;;24;;
55013;SDS011;40916;51.632;5.552;2022-10-31T00:21:03;10;;;14.8;;
55013;SDS011;40916;51.632;5.552;2022-10-31T00:26:03;10.1;;;16.4;;
55013;SDS011;40916;51.632;5.552;2022-10-31T00:31:03;11.2;;;27.6;;
55013;SDS011;40916;51.632;5.552;2022-10-31T00:36:03;11.1;;;23.4;;
55013;SDS011;40916;51.632;5.552;2022-10-31T00:41:03;10.6;;;18.1;;
55013;SDS011;40916;51.632;5.552;2022-10-31T00:46:03;11.7;;;19.6;;
55013;SDS011;40916;51.632;5.552;2022-10-31T00:51:03;10.9;;;22.9;;
55013;SDS011;40916;51.632;5.552;2022-10-31T00:56:03;9.6;;;16.8;;
55013;SDS011;40916;51.632;5.552;2022-10-31T01:01:03;10.6;;;16;;
55013;SDS011;40916;51.632;5.552;2022-10-31T01:06:08;10.8;;;18.1;;
55013;SDS011;40916;51.632;5.552;2022-10-31T01:11:04;10.7;;;15.3;;
55013;SDS011;40916;51.632;5.552;2022-10-31T01:16:06;10.9;;;20.4;;
55013;SDS011;40916;51.632;5.552;2022-10-31T01:21:03;10.3;;;19.1;;
55013;SDS011;40916;51.632;5.552;2022-10-31T01:26:06;10;;;19.8;;
55013;SDS011;40916;51.632;5.552;2022-10-31T01:31:05;10.7;;;16.9;;
55013;SDS011;40916;51.632;5.552;2022-10-31T01:36:10;11;;;17.8;;
55013;SDS011;40916;51.632;5.552;2022-10-31T01:41:02;10.8;;;17.9;;
55013;SDS011;40916;51.632;5.552;2022-10-31T01:46:02;10.1;;;18;;
55013;SDS011;40916;51.632;5.552;2022-10-31T01:51:03;10.2;;;15.7;;
55013;SDS011;40916;51.632;5.552;2022-10-31T01:56:03;10;;;14.6;;
55013;SDS011;40916;51.632;5.552;2022-10-31T02:01:05;10.8;;;18;;
55013;SDS011;40916;51.632;5.552;2022-10-31T02:06:04;10.6;;;18.6;;
55013;SDS011;40916;51.632;5.552;2022-10-31T02:11:02;11.7;;;20.1;;
55013;SDS011;40916;51.632;5.552;2022-10-31T02:16:02;11.5;;;18.6;;
55013;SDS011;40916;51.632;5.552;2022-10-31T02:21:04;10.8;;;18.7;;
55013;SDS011;40916;51.632;5.552;2022-10-31T02:26:07;9.8;;;16;;
55013;SDS011;40916;51.632;5.552;2022-10-31T02:31:06;10.9;;;20.5;;
55013;SDS011;40916;51.632;5.552;2022-10-31T02:36:04;11.4;;;17.5;;
55013;SDS011;40916;51.632;5.552;2022-10-31T02:41:04;12.2;;;21.3;;
55013;SDS011;40916;51.632;5.552;2022-10-31T02:46:03;9.7;;;15.2;;
55013;SDS011;40916;51.632;5.552;2022-10-31T02:51:03;10.4;;;15.1;;
55013;SDS011;40916;51.632;5.552;2022-10-31T02:56:04;10.2;;;17.1;;
55013;SDS011;40916;51.632;5.552;2022-10-31T03:01:07;10.9;;;20.5;;
55013;SDS011;40916;51.632;5.552;2022-10-31T03:06:03;11.4;;;17.3;;
55013;SDS011;40916;51.632;5.552;2022-10-31T03:11:03;10.1;;;17.7;;
55013;SDS011;40916;51.632;5.552;2022-10-31T03:16:04;10.5;;;15.7;;
55013;SDS011;40916;51.632;5.552;2022-10-31T03:21:04;10.4;;;17.8;;
55013;SDS011;40916;51.632;5.552;2022-10-31T03:26:03;10.9;;;17.1;;
55013;SDS011;40916;51.632;5.552;2022-10-31T03:31:02;11.3;;;16.1;;
55013;SDS011;40916;51.632;5.552;2022-10-31T03:36:03;11.8;;;18.2;;
55013;SDS011;40916;51.632;5.552;2022-10-31T03:41:03;11.7;;;23.5;;
55013;SDS011;40916;51.632;5.552;2022-10-31T03:46:02;11.3;;;19.3;;
55013;SDS011;40916;51.632;5.552;2022-10-31T03:51:04;11;;;18.3;;
55013;SDS011;40916;51.632;5.552;2022-10-31T03:56:04;10.6;;;18.3;;
55013;SDS011;40916;51.632;5.552;2022-10-31T04:01:02;10.6;;;17.9;;
55013;SDS011;40916;51.632;5.552;2022-10-31T04:06:03;10.8;;;18.4;;
55013;SDS011;40916;51.632;5.552;2022-10-31T04:11:02;10.6;;;16.5;;
55013;SDS011;40916;51.632;5.552;2022-10-31T04:16:02;9;;;15.7;;
55013;SDS011;40916;51.632;5.552;2022-10-31T04:21:04;10;;;21.6;;
55013;SDS011;40916;51.632;5.552;2022-10-31T04:26:02;9.9;;;14.3;;
55013;SDS011;40916;51.632;5.552;2022-10-31T04:31:02;10.9;;;19.7;;
55013;SDS011;40916;51.632;5.552;2022-10-31T04:36:02;10.6;;;20.1;;
55013;SDS011;40916;51.632;5.552;2022-10-31T04:41:02;11.2;;;22.7;;
55013;SDS011;40916;51.632;5.552;2022-10-31T04:46:02;10.3;;;23.1;;
55013;SDS011;40916;51.632;5.552;2022-10-31T04:51:02;10;;;15.1;;
55013;SDS011;40916;51.632;5.552;2022-10-31T04:56:02;9.8;;;16.1;;
55013;SDS011;40916;51.632;5.552;2022-10-31T05:01:02;9.8;;;16.7;;
55013;SDS011;40916;51.632;5.552;2022-10-31T05:06:02;9.2;;;14.2;;
55013;SDS011;40916;51.632;5.552;2022-10-31T05:11:02;9.5;;;15.7;;
55013;SDS011;40916;51.632;5.552;2022-10-31T05:16:02;9.7;;;14.3;;
55013;SDS011;40916;51.632;5.552;2022-10-31T05:21:02;9.4;;;19.1;;
55013;SDS011;40916;51.632;5.552;2022-10-31T05:26:02;9;;;13;;
55013;SDS011;40916;51.632;5.552;2022-10-31T05:31:02;10.3;;;17.7;;
55013;SDS011;40916;51.632;5.552;2022-10-31T05:36:02;9.4;;;16.7;;
55013;SDS011;40916;51.632;5.552;2022-10-31T05:41:02;9.1;;;16.1;;
55013;SDS011;40916;51.632;5.552;2022-10-31T05:46:02;9.1;;;13.4;;
55013;SDS011;40916;51.632;5.552;2022-10-31T05:51:02;9.3;;;16.7;;
55013;SDS011;40916;51.632;5.552;2022-10-31T05:56:02;11;;;16.3;;
55013;SDS011;40916;51.632;5.552;2022-10-31T06:01:02;10.8;;;16.8;;
55013;SDS011;40916;51.632;5.552;2022-10-31T06:06:02;12.6;;;20.1;;
55013;SDS011;40916;51.632;5.552;2022-10-31T06:11:02;12.3;;;30.6;;
55013;SDS011;40916;51.632;5.552;2022-10-31T06:16:02;11.5;;;20.7;;
55013;SDS011;40916;51.632;5.552;2022-10-31T06:21:02;12.4;;;23.7;;
55013;SDS011;40916;51.632;5.552;2022-10-31T06:26:02;12.9;;;23.1;;
55013;SDS011;40916;51.632;5.552;2022-10-31T06:31:02;11.9;;;19.4;;
55013;SDS011;40916;51.632;5.552;2022-10-31T06:36:02;11.5;;;22.5;;
55013;SDS011;40916;51.632;5.552;2022-10-31T06:41:02;13.3;;;23.3;;
55013;SDS011;40916;51.632;5.552;2022-10-31T06:46:03;13.5;;;25.8;;
55013;SDS011;40916;51.632;5.552;2022-10-31T06:51:02;12.2;;;25.5;;
55013;SDS011;40916;51.632;5.552;2022-10-31T06:56:02;12;;;23.1;;
55013;SDS011;40916;51.632;5.552;2022-10-31T07:01:02;14.9;;;32.8;;
55013;SDS011;40916;51.632;5.552;2022-10-31T07:06:02;17.3;;;39.4;;
55013;SDS011;40916;51.632;5.552;2022-10-31T07:11:02;17.2;;;40.6;;
55013;SDS011;40916;51.632;5.552;2022-10-31T07:16:03;17.2;;;54.9;;
55013;SDS011;40916;51.632;5.552;2022-10-31T07:21:02;15.7;;;55.5;;
55013;SDS011;40916;51.632;5.552;2022-10-31T07:26:02;16.9;;;52.6;;
55013;SDS011;40916;51.632;5.552;2022-10-31T07:31:02;15.3;;;33.1;;
55013;SDS011;40916;51.632;5.552;2022-10-31T07:36:02;15.3;;;25.2;;
55013;SDS011;40916;51.632;5.552;2022-10-31T07:41:02;14.4;;;23.3;;
55013;SDS011;40916;51.632;5.552;2022-10-31T07:46:02;14.7;;;20.5;;
55013;SDS011;40916;51.632;5.552;2022-10-31T07:51:02;16.1;;;22.3;;
55013;SDS011;40916;51.632;5.552;2022-10-31T07:56:02;16.1;;;29.3;;
55013;SDS011;40916;51.632;5.552;2022-10-31T08:01:02;16.3;;;24.1;;
55013;SDS011;40916;51.632;5.552;2022-10-31T08:06:02;18.6;;;31.6;;
55013;SDS011;40916;51.632;5.552;2022-10-31T08:11:02;20.6;;;32.3;;
55013;SDS011;40916;51.632;5.552;2022-10-31T08:16:02;20.2;;;34.1;;
55013;SDS011;40916;51.632;5.552;2022-10-31T08:21:02;23.9;;;44.9;;
55013;SDS011;40916;51.632;5.552;2022-10-31T08:26:02;25.1;;;45.8;;
55013;SDS011;40916;51.632;5.552;2022-10-31T08:31:02;26.6;;;39.3;;
55013;SDS011;40916;51.632;5.552;2022-10-31T08:36:02;26.8;;;41.2;;
55013;SDS011;40916;51.632;5.552;2022-10-31T08:41:02;25;;;36.7;;
55013;SDS011;40916;51.632;5.552;2022-10-31T08:46:02;24.3;;;40;;
55013;SDS011;40916;51.632;5.552;2022-10-31T08:51:02;22.2;;;34.6;;
55013;SDS011;40916;51.632;5.552;2022-10-31T08:56:02;20.4;;;36.8;;
55013;SDS011;40916;51.632;5.552;2022-10-31T09:01:02;19.3;;;29.5;;
55013;SDS011;40916;51.632;5.552;2022-10-31T09:06:02;20.4;;;35.7;;
55013;SDS011;40916;51.632;5.552;2022-10-31T09:11:02;19.6;;;30;;
55013;SDS011;40916;51.632;5.552;2022-10-31T09:16:02;20;;;34.8;;
55013;SDS011;40916;51.632;5.552;2022-10-31T09:21:02;19.9;;;29.3;;
55013;SDS011;40916;51.632;5.552;2022-10-31T09:26:02;21.1;;;38.4;;
55013;SDS011;40916;51.632;5.552;2022-10-31T09:31:02;21.3;;;39;;
55013;SDS011;40916;51.632;5.552;2022-10-31T09:36:02;19.8;;;33;;
55013;SDS011;40916;51.632;5.552;2022-10-31T09:41:04;22.1;;;42.1;;
55013;SDS011;40916;51.632;5.552;2022-10-31T09:46:04;24.9;;;53.8;;
55013;SDS011;40916;51.632;5.552;2022-10-31T09:51:03;24.2;;;43.6;;
55013;SDS011;40916;51.632;5.552;2022-10-31T09:56:02;25.5;;;44.1;;
55013;SDS011;40916;51.632;5.552;2022-10-31T10:01:02;26.7;;;50.7;;
55013;SDS011;40916;51.632;5.552;2022-10-31T10:06:05;27.1;;;46.2;;
55013;SDS011;40916;51.632;5.552;2022-10-31T10:11:05;26.6;;;47.4;;
55013;SDS011;40916;51.632;5.552;2022-10-31T10:16:06;27.9;;;48.4;;
55013;SDS011;40916;51.632;5.552;2022-10-31T10:21:05;28.4;;;48.5;;
55013;SDS011;40916;51.632;5.552;2022-10-31T10:26:04;29.3;;;51.8;;
55013;SDS011;40916;51.632;5.552;2022-10-31T10:31:03;28.7;;;53.7;;
55013;SDS011;40916;51.632;5.552;2022-10-31T10:36:03;28;;;48;;
55013;SDS011;40916;51.632;5.552;2022-10-31T10:41:03;27.1;;;41.8;;
55013;SDS011;40916;51.632;5.552;2022-10-31T10:46:17;28.6;;;48.2;;
55013;SDS011;40916;51.632;5.552;2022-10-31T10:51:02;30.1;;;55.4;;
55013;SDS011;40916;51.632;5.552;2022-10-31T10:56:04;29;;;44.9;;
55013;SDS011;40916;51.632;5.552;2022-10-31T11:01:08;30.9;;;49.6;;
55013;SDS011;40916;51.632;5.552;2022-10-31T11:06:02;30.6;;;55.5;;
55013;SDS011;40916;51.632;5.552;2022-10-31T11:11:03;33.3;;;51.3;;
55013;SDS011;40916;51.632;5.552;2022-10-31T11:16:02;31.3;;;52.8;;
55013;SDS011;40916;51.632;5.552;2022-10-31T11:21:02;30.8;;;52.4;;
55013;SDS011;40916;51.632;5.552;2022-10-31T11:26:02;31.8;;;56.8;;
55013;SDS011;40916;51.632;5.552;2022-10-31T11:31:05;29.7;;;55.4;;
55013;SDS011;40916;51.632;5.552;2022-10-31T11:36:03;28.7;;;47.6;;
55013;SDS011;40916;51.632;5.552;2022-10-31T11:41:05;30.8;;;50.8;;
55013;SDS011;40916;51.632;5.552;2022-10-31T11:46:07;29.1;;;50.9;;
55013;SDS011;40916;51.632;5.552;2022-10-31T11:51:02;27.9;;;41.6;;
55013;SDS011;40916;51.632;5.552;2022-10-31T11:56:03;30.4;;;47.1;;
55013;SDS011;40916;51.632;5.552;2022-10-31T12:01:02;28.3;;;52;;
55013;SDS011;40916;51.632;5.552;2022-10-31T12:06:03;26;;;43;;
55013;SDS011;40916;51.632;5.552;2022-10-31T12:11:05;25.5;;;46.8;;
55013;SDS011;40916;51.632;5.552;2022-10-31T12:16:04;27.1;;;50.3;;
55013;SDS011;40916;51.632;5.552;2022-10-31T12:21:08;26.2;;;50.7;;
55013;SDS011;40916;51.632;5.552;2022-10-31T12:26:06;24.4;;;43.8;;
55013;SDS011;40916;51.632;5.552;2022-10-31T12:31:05;23.6;;;40.6;;
55013;SDS011;40916;51.632;5.552;2022-10-31T12:36:07;22.9;;;36.3;;
55013;SDS011;40916;51.632;5.552;2022-10-31T12:41:06;23.6;;;41;;
55013;SDS011;40916;51.632;5.552;2022-10-31T12:46:02;21.2;;;36.1;;
55013;SDS011;40916;51.632;5.552;2022-10-31T12:51:03;21.3;;;37.8;;
55013;SDS011;40916;51.632;5.552;2022-10-31T12:56:06;18.4;;;30.4;;
55013;SDS011;40916;51.632;5.552;2022-10-31T13:01:04;16.8;;;27.9;;
55013;SDS011;40916;51.632;5.552;2022-10-31T13:06:03;15.2;;;30.5;;
55013;SDS011;40916;51.632;5.552;2022-10-31T13:11:03;14.8;;;26.2;;
55013;SDS011;40916;51.632;5.552;2022-10-31T13:16:03;15.2;;;28.4;;
55013;SDS011;40916;51.632;5.552;2022-10-31T13:21:03;14.5;;;34;;
55013;SDS011;40916;51.632;5.552;2022-10-31T13:26:03;13.8;;;23.7;;
55013;SDS011;40916;51.632;5.552;2022-10-31T13:31:02;14.4;;;27.7;;
55013;SDS011;40916;51.632;5.552;2022-10-31T13:36:08;13.6;;;27.9;;
55013;SDS011;40916;51.632;5.552;2022-10-31T13:41:02;13.4;;;26.7;;
55013;SDS011;40916;51.632;5.552;2022-10-31T13:46:02;13.6;;;28.2;;
55013;SDS011;40916;51.632;5.552;2022-10-31T13:51:02;12.9;;;24.4;;
55013;SDS011;40916;51.632;5.552;2022-10-31T13:56:03;12.3;;;26.3;;
55013;SDS011;40916;51.632;5.552;2022-10-31T14:01:05;12.5;;;23.6;;
55013;SDS011;40916;51.632;5.552;2022-10-31T14:06:02;12.2;;;27.5;;
55013;SDS011;40916;51.632;5.552;2022-10-31T14:11:01;11.3;;;24.9;;
55013;SDS011;40916;51.632;5.552;2022-10-31T14:16:02;12.5;;;28;;
55013;SDS011;40916;51.632;5.552;2022-10-31T14:21:12;12.1;;;29;;
55013;SDS011;40916;51.632;5.552;2022-10-31T14:26:33;14.4;;;29.6;;
55013;SDS011;40916;51.632;5.552;2022-10-31T14:31:01;14.1;;;30.1;;
55013;SDS011;40916;51.632;5.552;2022-10-31T14:36:03;13.1;;;24.8;;
55013;SDS011;40916;51.632;5.552;2022-10-31T14:41:07;14.1;;;25.1;;
55013;SDS011;40916;51.632;5.552;2022-10-31T14:46:02;13.7;;;22.7;;
55013;SDS011;40916;51.632;5.552;2022-10-31T14:51:02;13.3;;;24.5;;
55013;SDS011;40916;51.632;5.552;2022-10-31T14:56:02;13;;;25;;
55013;SDS011;40916;51.632;5.552;2022-10-31T15:01:01;12.7;;;22.8;;
55013;SDS011;40916;51.632;5.552;2022-10-31T15:06:02;13.4;;;29;;
55013;SDS011;40916;51.632;5.552;2022-10-31T15:11:03;12.8;;;28.3;;
55013;SDS011;40916;51.632;5.552;2022-10-31T15:16:01;12.9;;;30;;
55013;SDS011;40916;51.632;5.552;2022-10-31T15:21:01;12.4;;;23.2;;
55013;SDS011;40916;51.632;5.552;2022-10-31T15:26:03;13.7;;;26.5;;
55013;SDS011;40916;51.632;5.552;2022-10-31T15:31:02;13;;;27;;
55013;SDS011;40916;51.632;5.552;2022-10-31T15:36:02;13.6;;;29.9;;
55013;SDS011;40916;51.632;5.552;2022-10-31T15:41:02;13.3;;;23.2;;
55013;SDS011;40916;51.632;5.552;2022-10-31T15:46:02;13.4;;;25.9;;
55013;SDS011;40916;51.632;5.552;2022-10-31T15:51:01;14.1;;;32.2;;
55013;SDS011;40916;51.632;5.552;2022-10-31T15:56:02;13.7;;;23.7;;
55013;SDS011;40916;51.632;5.552;2022-10-31T16:01:02;13.7;;;24.8;;
55013;SDS011;40916;51.632;5.552;2022-10-31T16:06:03;15.5;;;32;;
55013;SDS011;40916;51.632;5.552;2022-10-31T16:11:14;14.4;;;28.8;;
55013;SDS011;40916;51.632;5.552;2022-10-31T16:16:02;15.5;;;31.3;;
55013;SDS011;40916;51.632;5.552;2022-10-31T16:21:02;15.5;;;29.5;;
55013;SDS011;40916;51.632;5.552;2022-10-31T16:26:04;14.1;;;33.7;;
55013;SDS011;40916;51.632;5.552;2022-10-31T16:31:11;16.3;;;35.6;;
55013;SDS011;40916;51.632;5.552;2022-10-31T16:36:28;14.6;;;31.4;;
55013;SDS011;40916;51.632;5.552;2022-10-31T16:41:01;14.7;;;32.5;;
55013;SDS011;40916;51.632;5.552;2022-10-31T16:46:01;12.6;;;27;;
55013;SDS011;40916;51.632;5.552;2022-10-31T16:51:01;12;;;24.3;;
55013;SDS011;40916;51.632;5.552;2022-10-31T16:56:02;10.6;;;28.9;;
55013;SDS011;40916;51.632;5.552;2022-10-31T17:01:02;10.6;;;24.7;;
55013;SDS011;40916;51.632;5.552;2022-10-31T17:06:01;9.7;;;26.8;;
55013;SDS011;40916;51.632;5.552;2022-10-31T17:11:01;9.4;;;23.5;;
55013;SDS011;40916;51.632;5.552;2022-10-31T17:16:01;9.6;;;19.5;;
55013;SDS011;40916;51.632;5.552;2022-10-31T17:21:02;8.2;;;14.6;;
55013;SDS011;40916;51.632;5.552;2022-10-31T17:26:01;9.8;;;24.9;;
55013;SDS011;40916;51.632;5.552;2022-10-31T17:31:01;9.8;;;17.3;;
55013;SDS011;40916;51.632;5.552;2022-10-31T17:36:01;10.1;;;17.3;;
55013;SDS011;40916;51.632;5.552;2022-10-31T17:41:03;8.6;;;18.9;;
55013;SDS011;40916;51.632;5.552;2022-10-31T17:46:01;7.7;;;15.9;;
55013;SDS011;40916;51.632;5.552;2022-10-31T17:51:02;7.7;;;16.6;;
55013;SDS011;40916;51.632;5.552;2022-10-31T17:56:02;8;;;21.3;;
55013;SDS011;40916;51.632;5.552;2022-10-31T18:01:05;7.3;;;16.6;;
55013;SDS011;40916;51.632;5.552;2022-10-31T18:06:01;7.2;;;13.9;;
55013;SDS011;40916;51.632;5.552;2022-10-31T18:11:04;6.8;;;14.2;;
55013;SDS011;40916;51.632;5.552;2022-10-31T18:16:01;6.4;;;16.7;;
55013;SDS011;40916;51.632;5.552;2022-10-31T18:21:01;7.6;;;16.2;;
55013;SDS011;40916;51.632;5.552;2022-10-31T18:26:01;6.6;;;18.7;;
55013;SDS011;40916;51.632;5.552;2022-10-31T18:31:01;6.5;;;15.3;;
55013;SDS011;40916;51.632;5.552;2022-10-31T18:36:03;6.5;;;15.6;;
55013;SDS011;40916;51.632;5.552;2022-10-31T18:41:01;6.9;;;16.9;;
55013;SDS011;40916;51.632;5.552;2022-10-31T18:46:01;6.5;;;17.3;;
55013;SDS011;40916;51.632;5.552;2022-10-31T18:51:02;6.2;;;13.4;;
55013;SDS011;40916;51.632;5.552;2022-10-31T18:56:05;6.8;;;16.3;;
55013;SDS011;40916;51.632;5.552;2022-10-31T19:01:04;6.8;;;18.2;;
55013;SDS011;40916;51.632;5.552;2022-10-31T19:06:01;7;;;16.1;;
55013;SDS011;40916;51.632;5.552;2022-10-31T19:11:02;7.4;;;15.4;;
55013;SDS011;40916;51.632;5.552;2022-10-31T19:16:03;6.5;;;17.2;;
55013;SDS011;40916;51.632;5.552;2022-10-31T19:21:03;6.7;;;16.5;;
55013;SDS011;40916;51.632;5.552;2022-10-31T19:26:01;7.2;;;18.6;;
55013;SDS011;40916;51.632;5.552;2022-10-31T19:31:01;7.1;;;18.5;;
55013;SDS011;40916;51.632;5.552;2022-10-31T19:36:02;7.2;;;15.3;;
55013;SDS011;40916;51.632;5.552;2022-10-31T19:41:02;5.9;;;15.3;;
55013;SDS011;40916;51.632;5.552;2022-10-31T19:46:01;6.6;;;13.6;;
55013;SDS011;40916;51.632;5.552;2022-10-31T19:51:02;7.4;;;20.3;;
55013;SDS011;40916;51.632;5.552;2022-10-31T19:56:01;8;;;18.7;;
55013;SDS011;40916;51.632;5.552;2022-10-31T20:01:04;8.9;;;16.2;;
55013;SDS011;40916;51.632;5.552;2022-10-31T20:06:01;7.9;;;24.1;;
55013;SDS011;40916;51.632;5.552;2022-10-31T20:11:01;7.1;;;19.6;;
55013;SDS011;40916;51.632;5.552;2022-10-31T20:16:02;6.8;;;11.4;;
55013;SDS011;40916;51.632;5.552;2022-10-31T20:21:01;7;;;19.3;;
55013;SDS011;40916;51.632;5.552;2022-10-31T20:26:01;6.3;;;16.2;;
55013;SDS011;40916;51.632;5.552;2022-10-31T20:31:05;8.3;;;20.3;;
55013;SDS011;40916;51.632;5.552;2022-10-31T20:36:02;7;;;15;;
55013;SDS011;40916;51.632;5.552;2022-10-31T20:41:02;6.9;;;17;;
55013;SDS011;40916;51.632;5.552;2022-10-31T20:46:02;6.1;;;14.4;;
55013;SDS011;40916;51.632;5.552;2022-10-31T20:51:02;6.2;;;15.4;;
55013;SDS011;40916;51.632;5.552;2022-10-31T20:56:02;6.3;;;14.2;;
55013;SDS011;40916;51.632;5.552;2022-10-31T21:01:01;5.7;;;11.8;;
55013;SDS011;40916;51.632;5.552;2022-10-31T21:06:03;6.2;;;20.6;;
55013;SDS011;40916;51.632;5.552;2022-10-31T21:11:04;6.1;;;16.7;;
55013;SDS011;40916;51.632;5.552;2022-10-31T21:16:03;7.1;;;20.2;;
55013;SDS011;40916;51.632;5.552;2022-10-31T21:21:01;5.9;;;13.2;;
55013;SDS011;40916;51.632;5.552;2022-10-31T21:26:04;6.7;;;14.5;;
55013;SDS011;40916;51.632;5.552;2022-10-31T21:31:04;5.4;;;11.5;;
55013;SDS011;40916;51.632;5.552;2022-10-31T21:36:01;7;;;22.2;;
55013;SDS011;40916;51.632;5.552;2022-10-31T21:41:01;7.6;;;18.6;;
55013;SDS011;40916;51.632;5.552;2022-10-31T21:46:01;6.1;;;16.2;;
55013;SDS011;40916;51.632;5.552;2022-10-31T21:51:01;5.9;;;13.3;;
55013;SDS011;40916;51.632;5.552;2022-10-31T21:56:01;6;;;19.1;;
55013;SDS011;40916;51.632;5.552;2022-10-31T22:01:01;6.4;;;15.9;;
55013;SDS011;40916;51.632;5.552;2022-10-31T22:06:01;6.2;;;13.1;;
55013;SDS011;40916;51.632;5.552;2022-10-31T22:11:01;5.8;;;11.5;;
55013;SDS011;40916;51.632;5.552;2022-10-31T22:16:01;5.5;;;14.3;;
55013;SDS011;40916;51.632;5.552;2022-10-31T22:21:01;6.4;;;19.1;;
55013;SDS011;40916;51.632;5.552;2022-10-31T22:26:01;5.3;;;15.3;;
55013;SDS011;40916;51.632;5.552;2022-10-31T22:31:02;5.6;;;14.2;;
55013;SDS011;40916;51.632;5.552;2022-10-31T22:36:01;5.5;;;13.5;;
55013;SDS011;40916;51.632;5.552;2022-10-31T22:41:01;6.1;;;18.4;;
55013;SDS011;40916;51.632;5.552;2022-10-31T22:46:02;6.2;;;15.1;;
55013;SDS011;40916;51.632;5.552;2022-10-31T22:51:02;6.4;;;15.9;;
55013;SDS011;40916;51.632;5.552;2022-10-31T22:56:01;6.1;;;12.5;;
55013;SDS011;40916;51.632;5.552;2022-10-31T23:01:04;6.4;;;16.6;;
55013;SDS011;40916;51.632;5.552;2022-10-31T23:06:02;6.7;;;18.1;;
55013;SDS011;40916;51.632;5.552;2022-10-31T23:11:01;5.8;;;14.3;;
55013;SDS011;40916;51.632;5.552;2022-10-31T23:16:03;6.7;;;13.4;;
55013;SDS011;40916;51.632;5.552;2022-10-31T23:21:01;6.5;;;13.3;;
55013;SDS011;40916;51.632;5.552;2022-10-31T23:26:01;6.3;;;13.8;;
55013;SDS011;40916;51.632;5.552;2022-10-31T23:31:01;8.1;;;17.9;;
55013;SDS011;40916;51.632;5.552;2022-10-31T23:36:01;7;;;19;;
55013;SDS011;40916;51.632;5.552;2022-10-31T23:41:01;6;;;12.1;;
55013;SDS011;40916;51.632;5.552;2022-10-31T23:46:01;5.8;;;13.4;;
55013;SDS011;40916;51.632;5.552;2022-10-31T23:51:01;6.7;;;18.1;;
55013;SDS011;40916;51.632;5.552;2022-10-31T23:56:01;7.1;;;17;;
